createdAt,value
2022-07-27T00:00:59.242Z,14.27
2022-07-27T00:01:59.127Z,14.23
2022-07-27T00:02:59.116Z,14.19
2022-07-27T00:03:59.181Z,14.23
2022-07-27T00:04:59.095Z,14.19
2022-07-27T00:05:59.085Z,14.16
2022-07-27T00:06:59.072Z,14.13
2022-07-27T00:07:59.059Z,14.13
2022-07-27T00:08:59.050Z,14.13
2022-07-27T00:09:59.041Z,14.16
2022-07-27T00:10:59.029Z,14.16
2022-07-27T00:11:59.016Z,14.11
2022-07-27T00:12:59.004Z,14.12
2022-07-27T00:13:58.994Z,14.06
2022-07-27T00:14:58.981Z,14.05
2022-07-27T00:15:59.024Z,14.04
2022-07-27T00:16:58.960Z,13.98
2022-07-27T00:17:58.950Z,14.01
2022-07-27T00:18:58.940Z,13.99
2022-07-27T00:19:58.933Z,13.96
2022-07-27T00:20:58.914Z,13.96
2022-07-27T00:21:58.907Z,13.98
2022-07-27T00:22:58.892Z,14.01
2022-07-27T00:23:58.885Z,13.96
2022-07-27T00:24:58.871Z,13.94
2022-07-27T00:25:58.861Z,13.91
2022-07-27T00:26:58.851Z,13.87
2022-07-27T00:27:58.840Z,13.94
2022-07-27T00:28:58.826Z,13.91
2022-07-27T00:29:58.820Z,13.87
2022-07-27T00:30:58.897Z,13.88
2022-07-27T00:31:58.865Z,13.91
2022-07-27T00:32:58.786Z,13.87
2022-07-27T00:33:58.773Z,13.80
2022-07-27T00:34:58.762Z,13.90
2022-07-27T00:35:58.750Z,13.88
2022-07-27T00:36:58.737Z,13.88
2022-07-27T00:37:58.730Z,13.90
2022-07-27T00:38:58.715Z,13.88
2022-07-27T00:39:58.706Z,13.91
2022-07-27T00:40:58.695Z,13.94
2022-07-27T00:41:58.687Z,13.91
2022-07-27T00:42:58.672Z,13.88
2022-07-27T00:43:58.665Z,13.86
2022-07-27T00:44:58.649Z,13.83
2022-07-27T00:45:58.639Z,13.86
2022-07-27T00:46:58.668Z,13.81
2022-07-27T00:47:58.645Z,13.81
2022-07-27T00:48:58.690Z,13.76
2022-07-27T00:49:58.595Z,13.76
2022-07-27T00:50:58.585Z,13.69
2022-07-27T00:51:58.574Z,13.71
2022-07-27T00:52:58.562Z,13.68
2022-07-27T00:53:58.555Z,13.69
2022-07-27T00:54:58.538Z,13.63
2022-07-27T00:55:58.528Z,13.63
2022-07-27T00:56:58.518Z,13.63
2022-07-27T00:57:59.743Z,13.65
2022-07-27T00:58:58.497Z,13.57
2022-07-27T00:59:58.485Z,13.59
2022-07-27T01:00:58.476Z,13.61
2022-07-27T01:01:58.635Z,13.59
2022-07-27T01:02:58.642Z,13.59
2022-07-27T01:03:58.442Z,13.61
2022-07-27T01:04:58.429Z,13.54
2022-07-27T01:05:58.418Z,13.59
2022-07-27T01:06:58.408Z,13.51
2022-07-27T01:07:58.400Z,13.55
2022-07-27T01:08:58.383Z,13.55
2022-07-27T01:09:58.433Z,13.57
2022-07-27T01:10:58.360Z,13.51
2022-07-27T01:11:58.352Z,13.53
2022-07-27T01:12:58.344Z,13.50
2022-07-27T01:13:58.328Z,13.50
2022-07-27T01:14:58.317Z,13.46
2022-07-27T01:15:58.340Z,13.43
2022-07-27T01:16:58.296Z,13.44
2022-07-27T01:17:58.287Z,13.39
2022-07-27T01:18:58.273Z,13.39
2022-07-27T01:19:58.263Z,13.39
2022-07-27T01:20:58.251Z,13.32
2022-07-27T01:21:58.248Z,13.31
2022-07-27T01:22:58.233Z,13.28
2022-07-27T01:23:58.219Z,13.29
2022-07-27T01:24:58.209Z,13.31
2022-07-27T01:25:58.201Z,13.36
2022-07-27T01:26:58.184Z,13.32
2022-07-27T01:27:58.175Z,13.32
2022-07-27T01:28:58.163Z,13.31
2022-07-27T01:29:58.156Z,13.29
2022-07-27T01:30:58.247Z,13.31
2022-07-27T01:31:58.133Z,13.27
2022-07-27T01:32:58.119Z,13.35
2022-07-27T01:33:58.109Z,13.28
2022-07-27T01:34:58.097Z,13.31
2022-07-27T01:35:58.089Z,13.32
2022-07-27T01:36:58.073Z,13.31
2022-07-27T01:37:58.062Z,13.31
2022-07-27T01:38:58.051Z,13.36
2022-07-27T01:39:58.042Z,13.31
2022-07-27T01:40:58.030Z,13.32
2022-07-27T01:41:58.021Z,13.35
2022-07-27T01:42:58.008Z,13.35
2022-07-27T01:43:58.000Z,13.35
2022-07-27T01:44:57.986Z,13.32
2022-07-27T01:45:58.063Z,13.29
2022-07-27T01:46:57.964Z,13.25
2022-07-27T01:47:57.956Z,13.28
2022-07-27T01:48:58.001Z,13.25
2022-07-27T01:49:57.932Z,13.21
2022-07-27T01:50:57.919Z,13.22
2022-07-27T01:51:57.910Z,13.19
2022-07-27T01:52:57.905Z,13.21
2022-07-27T01:53:57.888Z,13.22
2022-07-27T01:54:57.876Z,13.21
2022-07-27T01:55:57.867Z,13.19
2022-07-27T01:56:57.856Z,13.16
2022-07-27T01:57:57.844Z,13.22
2022-07-27T01:58:57.832Z,13.21
2022-07-27T01:59:57.827Z,13.19
2022-07-27T02:00:57.836Z,13.19
2022-07-27T02:01:57.890Z,13.16
2022-07-27T02:02:57.825Z,13.14
2022-07-27T02:03:57.805Z,13.13
2022-07-27T02:04:57.880Z,13.12
2022-07-27T02:05:57.755Z,13.12
2022-07-27T02:06:57.743Z,13.10
2022-07-27T02:07:57.733Z,13.09
2022-07-27T02:08:57.722Z,13.06
2022-07-27T02:09:57.718Z,13.04
2022-07-27T02:10:57.702Z,13.04
2022-07-27T02:11:57.696Z,12.96
2022-07-27T02:12:57.682Z,12.99
2022-07-27T02:13:57.668Z,13.03
2022-07-27T02:14:57.655Z,13.01
2022-07-27T02:15:58.730Z,12.95
2022-07-27T02:16:57.636Z,12.96
2022-07-27T02:17:57.629Z,12.95
2022-07-27T02:18:57.609Z,12.94
2022-07-27T02:19:57.601Z,12.94
2022-07-27T02:20:57.588Z,12.87
2022-07-27T02:21:57.579Z,12.85
2022-07-27T02:22:57.568Z,12.85
2022-07-27T02:23:57.555Z,12.80
2022-07-27T02:24:57.543Z,12.80
2022-07-27T02:25:57.540Z,12.79
2022-07-27T02:26:57.523Z,12.77
2022-07-27T02:27:57.511Z,12.76
2022-07-27T02:28:57.500Z,12.70
2022-07-27T02:29:57.498Z,12.62
2022-07-27T02:30:57.476Z,12.62
2022-07-27T02:31:57.467Z,12.56
2022-07-27T02:32:57.522Z,12.54
2022-07-27T02:33:57.445Z,12.49
2022-07-27T02:34:57.431Z,12.51
2022-07-27T02:35:57.422Z,12.48
2022-07-27T02:36:57.411Z,12.48
2022-07-27T02:37:57.402Z,12.41
2022-07-27T02:38:57.399Z,12.37
2022-07-27T02:39:57.377Z,12.36
2022-07-27T02:40:57.367Z,12.31
2022-07-27T02:41:57.357Z,12.26
2022-07-27T02:42:57.343Z,12.26
2022-07-27T02:43:57.334Z,12.31
2022-07-27T02:44:57.320Z,12.25
2022-07-27T02:45:57.367Z,12.22
2022-07-27T02:46:57.307Z,12.21
2022-07-27T02:47:57.286Z,12.21
2022-07-27T02:48:57.328Z,12.15
2022-07-27T02:49:57.266Z,12.16
2022-07-27T02:50:57.251Z,12.12
2022-07-27T02:51:57.243Z,12.11
2022-07-27T02:52:57.231Z,12.04
2022-07-27T02:53:57.220Z,12.03
2022-07-27T02:54:57.208Z,11.98
2022-07-27T02:55:57.196Z,11.98
2022-07-27T02:56:57.184Z,11.94
2022-07-27T02:57:57.177Z,11.97
2022-07-27T02:58:57.164Z,11.97
2022-07-27T02:59:57.315Z,11.98
2022-07-27T03:00:58.738Z,11.98
2022-07-27T03:01:57.203Z,12.00
2022-07-27T03:02:57.119Z,12.00
2022-07-27T03:03:57.194Z,11.98
2022-07-27T03:04:57.096Z,11.96
2022-07-27T03:05:57.086Z,11.97
2022-07-27T03:06:57.078Z,11.94
2022-07-27T03:07:57.064Z,11.98
2022-07-27T03:08:57.049Z,11.90
2022-07-27T03:09:57.051Z,11.88
2022-07-27T03:10:57.031Z,11.82
2022-07-27T03:11:57.019Z,11.87
2022-07-27T03:12:57.007Z,11.87
2022-07-27T03:13:56.996Z,11.84
2022-07-27T03:14:56.985Z,11.84
2022-07-27T03:15:57.068Z,11.79
2022-07-27T03:16:56.966Z,11.75
2022-07-27T03:17:56.955Z,11.67
2022-07-27T03:18:57.022Z,11.74
2022-07-27T03:19:56.930Z,11.77
2022-07-27T03:20:56.919Z,11.74
2022-07-27T03:21:56.911Z,11.75
2022-07-27T03:22:56.896Z,11.72
2022-07-27T03:23:56.894Z,11.66
2022-07-27T03:24:56.875Z,11.63
2022-07-27T03:25:56.868Z,11.64
2022-07-27T03:26:56.861Z,11.63
2022-07-27T03:28:01.947Z,11.63
2022-07-27T03:28:56.835Z,11.54
2022-07-27T03:29:56.823Z,11.48
2022-07-27T03:30:56.879Z,11.45
2022-07-27T03:31:56.801Z,11.42
2022-07-27T03:32:56.794Z,11.33
2022-07-27T03:33:56.779Z,11.36
2022-07-27T03:34:56.768Z,11.35
2022-07-27T03:35:56.761Z,11.36
2022-07-27T03:36:56.743Z,11.33
2022-07-27T03:37:56.734Z,11.35
2022-07-27T03:38:56.720Z,11.30
2022-07-27T03:39:56.715Z,11.28
2022-07-27T03:40:56.701Z,11.35
2022-07-27T03:41:56.691Z,11.45
2022-07-27T03:42:56.691Z,11.54
2022-07-27T03:43:56.675Z,11.48
2022-07-27T03:44:56.666Z,11.51
2022-07-27T03:45:56.733Z,11.49
2022-07-27T03:46:56.647Z,11.49
2022-07-27T03:47:56.626Z,11.42
2022-07-27T03:48:56.655Z,11.46
2022-07-27T03:49:56.620Z,11.51
2022-07-27T03:50:56.600Z,11.56
2022-07-27T03:51:56.579Z,11.57
2022-07-27T03:52:56.570Z,11.62
2022-07-27T03:53:56.559Z,11.66
2022-07-27T03:54:56.550Z,11.60
2022-07-27T03:55:56.537Z,11.63
2022-07-27T03:56:56.532Z,11.66
2022-07-27T03:57:56.662Z,11.70
2022-07-27T03:58:56.503Z,11.79
2022-07-27T03:59:56.500Z,11.85
2022-07-27T04:00:56.578Z,11.90
2022-07-27T04:01:56.699Z,11.96
2022-07-27T04:02:56.527Z,11.93
2022-07-27T04:03:56.450Z,11.96
2022-07-27T04:04:56.439Z,11.98
2022-07-27T04:05:56.428Z,12.03
2022-07-27T04:06:56.417Z,12.01
2022-07-27T04:07:56.407Z,12.01
2022-07-27T04:09:11.845Z,12.05
2022-07-27T04:09:56.384Z,12.08
2022-07-27T04:10:56.411Z,12.11
2022-07-27T04:11:56.397Z,12.12
2022-07-27T04:12:56.375Z,12.12
2022-07-27T04:13:56.338Z,12.13
2022-07-27T04:14:56.327Z,12.08
2022-07-27T04:15:56.321Z,12.12
2022-07-27T04:16:56.401Z,12.16
2022-07-27T04:17:57.651Z,12.21
2022-07-27T04:18:56.284Z,12.22
2022-07-27T04:19:56.271Z,12.25
2022-07-27T04:20:56.264Z,12.31
2022-07-27T04:21:56.252Z,12.36
2022-07-27T04:22:56.242Z,12.38
2022-07-27T04:23:56.228Z,12.37
2022-07-27T04:24:56.216Z,12.38
2022-07-27T04:25:56.206Z,12.36
2022-07-27T04:26:56.196Z,12.37
2022-07-27T04:27:56.180Z,12.40
2022-07-27T04:28:56.172Z,12.41
2022-07-27T04:29:56.160Z,12.44
2022-07-27T04:30:56.231Z,12.48
2022-07-27T04:31:56.147Z,12.56
2022-07-27T04:32:56.128Z,12.56
2022-07-27T04:33:56.163Z,12.58
2022-07-27T04:34:56.142Z,12.66
2022-07-27T04:35:56.095Z,12.70
2022-07-27T04:36:56.083Z,12.74
2022-07-27T04:37:58.433Z,12.80
2022-07-27T04:38:56.061Z,12.92
2022-07-27T04:39:56.048Z,13.07
2022-07-27T04:40:58.303Z,13.21
2022-07-27T04:41:56.025Z,13.47
2022-07-27T04:42:56.218Z,13.71
2022-07-27T04:43:56.007Z,13.90
2022-07-27T04:44:55.995Z,13.99
2022-07-27T04:45:56.011Z,14.29
2022-07-27T04:46:55.977Z,14.42
2022-07-27T04:47:55.964Z,14.42
2022-07-27T04:48:55.983Z,14.35
2022-07-27T04:49:55.942Z,14.21
2022-07-27T04:50:55.930Z,14.06
2022-07-27T04:51:55.913Z,13.93
2022-07-27T04:52:55.905Z,13.86
2022-07-27T04:53:58.531Z,13.84
2022-07-27T04:54:56.144Z,13.80
2022-07-27T04:55:55.889Z,13.79
2022-07-27T04:56:55.880Z,13.79
2022-07-27T04:57:55.898Z,13.79
2022-07-27T04:58:55.883Z,13.76
2022-07-27T04:59:55.827Z,13.75
2022-07-27T05:00:55.885Z,13.71
2022-07-27T05:01:55.927Z,13.73
2022-07-27T05:02:55.794Z,13.68
2022-07-27T05:03:55.832Z,13.65
2022-07-27T05:04:55.770Z,13.59
2022-07-27T05:05:55.764Z,13.59
2022-07-27T05:06:55.749Z,13.54
2022-07-27T05:07:55.736Z,13.47
2022-07-27T05:08:55.728Z,13.44
2022-07-27T05:09:55.715Z,13.36
2022-07-27T05:10:55.706Z,13.35
2022-07-27T05:11:55.699Z,13.31
2022-07-27T05:12:55.682Z,13.27
2022-07-27T05:13:55.670Z,13.27
2022-07-27T05:14:55.660Z,13.22
2022-07-27T05:15:56.086Z,13.22
2022-07-27T05:16:55.691Z,13.19
2022-07-27T05:17:55.631Z,13.13
2022-07-27T05:18:55.633Z,13.10
2022-07-27T05:19:55.619Z,13.09
2022-07-27T05:20:55.635Z,13.10
2022-07-27T05:21:55.582Z,13.09
2022-07-27T05:22:55.571Z,13.06
2022-07-27T05:23:55.563Z,13.06
2022-07-27T05:24:55.549Z,13.06
2022-07-27T05:25:55.540Z,13.25
2022-07-27T05:26:55.530Z,13.76
2022-07-27T05:27:55.519Z,14.19
2022-07-27T05:28:55.505Z,14.53
2022-07-27T05:29:55.495Z,14.75
2022-07-27T05:30:55.490Z,15.07
2022-07-27T05:31:55.539Z,15.16
2022-07-27T05:32:55.470Z,15.30
2022-07-27T05:33:58.410Z,15.56
2022-07-27T05:34:55.441Z,15.67
2022-07-27T05:35:55.427Z,15.71
2022-07-27T05:36:55.422Z,15.89
2022-07-27T05:37:55.409Z,15.89
2022-07-27T05:38:55.400Z,15.96
2022-07-27T05:39:55.384Z,16.01
2022-07-27T05:40:55.392Z,15.86
2022-07-27T05:41:55.434Z,15.85
2022-07-27T05:42:55.395Z,15.76
2022-07-27T05:43:55.398Z,15.93
2022-07-27T05:44:55.331Z,16.17
2022-07-27T05:45:55.393Z,16.30
2022-07-27T05:46:55.309Z,16.40
2022-07-27T05:47:55.296Z,16.52
2022-07-27T05:48:55.331Z,16.73
2022-07-27T05:49:55.443Z,16.96
2022-07-27T05:50:55.268Z,17.18
2022-07-27T05:51:55.250Z,17.32
2022-07-27T05:52:55.244Z,17.30
2022-07-27T05:53:55.232Z,17.18
2022-07-27T05:54:55.224Z,17.27
2022-07-27T05:55:59.065Z,17.30
2022-07-27T05:56:55.200Z,17.40
2022-07-27T05:57:55.190Z,17.46
2022-07-27T05:58:55.182Z,17.27
2022-07-27T05:59:55.169Z,17.35
2022-07-27T06:00:55.213Z,17.55
2022-07-27T06:01:55.146Z,17.70
2022-07-27T06:02:55.142Z,17.76
2022-07-27T06:03:55.234Z,17.70
2022-07-27T06:04:55.149Z,17.60
2022-07-27T06:05:55.136Z,17.57
2022-07-27T06:06:55.131Z,17.40
2022-07-27T06:07:55.074Z,17.22
2022-07-27T06:08:55.066Z,17.02
2022-07-27T06:09:55.054Z,16.87
2022-07-27T06:10:55.045Z,16.73
2022-07-27T06:11:55.034Z,16.62
2022-07-27T06:12:55.022Z,16.67
2022-07-27T06:13:55.013Z,16.67
2022-07-27T06:14:55.000Z,16.52
2022-07-27T06:15:54.988Z,16.33
2022-07-27T06:16:55.032Z,16.27
2022-07-27T06:17:54.971Z,16.40
2022-07-27T06:18:54.956Z,16.52
2022-07-27T06:19:54.943Z,16.57
2022-07-27T06:20:54.936Z,16.67
2022-07-27T06:21:54.924Z,16.69
2022-07-27T06:22:54.917Z,16.66
2022-07-27T06:23:54.900Z,16.65
2022-07-27T06:24:54.893Z,16.59
2022-07-27T06:25:54.880Z,16.51
2022-07-27T06:26:54.880Z,16.47
2022-07-27T06:27:54.927Z,16.54
2022-07-27T06:28:54.899Z,16.57
2022-07-27T06:29:54.832Z,16.69
2022-07-27T06:30:54.825Z,16.78
2022-07-27T06:31:54.873Z,16.85
2022-07-27T06:32:54.807Z,16.88
2022-07-27T06:33:54.791Z,16.96
2022-07-27T06:34:54.779Z,16.96
2022-07-27T06:35:54.769Z,16.96
2022-07-27T06:36:54.759Z,17.10
2022-07-27T06:37:54.746Z,17.06
2022-07-27T06:38:54.736Z,17.18
2022-07-27T06:39:54.725Z,17.09
2022-07-27T06:40:54.712Z,17.06
2022-07-27T06:41:58.113Z,17.07
2022-07-27T06:42:54.691Z,17.06
2022-07-27T06:43:54.679Z,16.99
2022-07-27T06:44:54.688Z,17.22
2022-07-27T06:45:54.972Z,17.18
2022-07-27T06:46:54.728Z,17.17
2022-07-27T06:47:54.635Z,17.33
2022-07-27T06:48:54.718Z,17.46
2022-07-27T06:49:54.637Z,17.46
2022-07-27T06:50:54.629Z,17.39
2022-07-27T06:51:54.617Z,17.62
2022-07-27T06:52:54.585Z,17.86
2022-07-27T06:53:54.584Z,17.80
2022-07-27T06:54:54.568Z,17.95
2022-07-27T06:55:54.879Z,18.25
2022-07-27T06:56:54.544Z,18.16
2022-07-27T06:57:54.529Z,18.49
2022-07-27T06:58:54.518Z,18.87
2022-07-27T06:59:54.510Z,18.99
2022-07-27T07:00:54.516Z,19.31
2022-07-27T07:01:54.487Z,18.99
2022-07-27T07:02:54.478Z,18.25
2022-07-27T07:03:54.505Z,17.99
2022-07-27T07:04:54.454Z,17.83
2022-07-27T07:05:54.445Z,17.66
2022-07-27T07:06:54.435Z,17.58
2022-07-27T07:07:54.455Z,17.53
2022-07-27T07:08:54.413Z,17.53
2022-07-27T07:09:54.399Z,17.55
2022-07-27T07:10:54.402Z,17.54
2022-07-27T07:11:54.380Z,17.51
2022-07-27T07:12:54.411Z,17.30
2022-07-27T07:13:54.392Z,17.15
2022-07-27T07:14:54.369Z,17.18
2022-07-27T07:15:54.365Z,17.12
2022-07-27T07:16:54.324Z,17.14
2022-07-27T07:17:54.482Z,17.18
2022-07-27T07:18:54.302Z,17.21
2022-07-27T07:19:54.291Z,17.32
2022-07-27T07:20:54.282Z,17.33
2022-07-27T07:21:54.269Z,17.32
2022-07-27T07:22:54.261Z,17.39
2022-07-27T07:23:54.245Z,17.43
2022-07-27T07:24:56.186Z,17.53
2022-07-27T07:25:54.224Z,17.57
2022-07-27T07:26:54.214Z,17.68
2022-07-27T07:27:54.200Z,17.80
2022-07-27T07:28:54.190Z,17.95
2022-07-27T07:29:54.179Z,18.09
2022-07-27T07:30:54.169Z,18.23
2022-07-27T07:31:54.236Z,18.35
2022-07-27T07:32:54.150Z,18.56
2022-07-27T07:33:54.141Z,18.72
2022-07-27T07:34:54.240Z,18.76
2022-07-27T07:36:13.995Z,18.91
2022-07-27T07:36:54.371Z,19.39
2022-07-27T07:37:54.104Z,19.49
2022-07-27T07:38:54.082Z,19.06
2022-07-27T07:39:54.072Z,18.94
2022-07-27T07:40:54.232Z,19.17
2022-07-27T07:41:54.072Z,19.45
2022-07-27T07:42:54.042Z,19.86
2022-07-27T07:43:54.028Z,19.86
2022-07-27T07:44:54.018Z,20.01
2022-07-27T07:45:54.006Z,20.38
2022-07-27T07:46:54.123Z,20.63
2022-07-27T07:47:54.021Z,20.93
2022-07-27T07:48:54.043Z,21.45
2022-07-27T07:49:53.964Z,22.01
2022-07-27T07:50:54.223Z,22.21
2022-07-27T07:51:53.943Z,22.21
2022-07-27T07:52:53.943Z,22.49
2022-07-27T07:53:53.920Z,22.45
2022-07-27T07:54:53.910Z,22.04
2022-07-27T07:55:53.898Z,21.70
2022-07-27T07:56:53.910Z,21.68
2022-07-27T07:57:53.968Z,21.49
2022-07-27T07:58:53.940Z,21.53
2022-07-27T07:59:53.859Z,21.81
2022-07-27T08:00:53.854Z,21.52
2022-07-27T08:01:53.902Z,21.74
2022-07-27T08:02:53.971Z,22.15
2022-07-27T08:03:53.814Z,22.30
2022-07-27T08:04:53.806Z,21.81
2022-07-27T08:05:53.792Z,22.27
2022-07-27T08:06:53.786Z,22.93
2022-07-27T08:07:53.774Z,23.49
2022-07-27T08:08:53.762Z,23.06
2022-07-27T08:09:53.755Z,22.97
2022-07-27T08:10:53.743Z,22.49
2022-07-27T08:11:53.732Z,22.11
2022-07-27T08:12:53.719Z,21.15
2022-07-27T08:13:53.714Z,20.44
2022-07-27T08:14:53.700Z,20.00
2022-07-27T08:15:53.830Z,19.94
2022-07-27T08:16:53.679Z,20.69
2022-07-27T08:17:53.665Z,21.36
2022-07-27T08:18:53.674Z,22.33
2022-07-27T08:19:53.680Z,23.18
2022-07-27T08:20:53.745Z,22.48
2022-07-27T08:21:53.623Z,22.29
2022-07-27T08:22:53.616Z,22.27
2022-07-27T08:23:53.602Z,22.38
2022-07-27T08:24:53.595Z,22.24
2022-07-27T08:25:53.585Z,21.93
2022-07-27T08:26:53.573Z,21.30
2022-07-27T08:27:55.592Z,21.03
2022-07-27T08:28:53.554Z,20.94
2022-07-27T08:29:53.547Z,21.05
2022-07-27T08:30:53.598Z,21.01
2022-07-27T08:31:53.647Z,20.85
2022-07-27T08:32:53.513Z,20.66
2022-07-27T08:33:53.497Z,20.41
2022-07-27T08:34:53.488Z,20.31
2022-07-27T08:35:53.513Z,20.22
2022-07-27T08:36:53.771Z,20.16
2022-07-27T08:37:53.457Z,20.19
2022-07-27T08:38:53.451Z,20.07
2022-07-27T08:40:37.879Z,19.79
2022-07-27T08:40:53.441Z,19.62
2022-07-27T08:41:53.465Z,19.27
2022-07-27T08:42:53.422Z,19.13
2022-07-27T08:43:53.416Z,18.94
2022-07-27T08:44:53.385Z,18.72
2022-07-27T08:45:53.375Z,18.53
2022-07-27T08:46:53.429Z,18.32
2022-07-27T08:47:53.350Z,18.16
2022-07-27T08:48:53.402Z,18.01
2022-07-27T08:49:53.399Z,17.73
2022-07-27T08:50:53.329Z,17.63
2022-07-27T08:51:53.305Z,17.46
2022-07-27T08:52:53.293Z,17.58
2022-07-27T08:53:54.121Z,17.76
2022-07-27T08:54:53.271Z,17.92
2022-07-27T08:55:53.260Z,18.11
2022-07-27T08:56:53.252Z,18.25
2022-07-27T08:57:53.241Z,18.41
2022-07-27T08:58:53.229Z,18.59
2022-07-27T08:59:53.220Z,18.60
2022-07-27T09:00:53.209Z,18.74
2022-07-27T09:01:53.239Z,18.76
2022-07-27T09:02:53.287Z,18.78
2022-07-27T09:03:53.178Z,18.76
2022-07-27T09:04:53.173Z,18.83
2022-07-27T09:05:53.187Z,19.01
2022-07-27T09:06:54.358Z,19.27
2022-07-27T09:07:53.183Z,19.62
2022-07-27T09:08:53.474Z,20.05
2022-07-27T09:09:53.110Z,20.05
2022-07-27T09:10:53.098Z,20.57
2022-07-27T09:11:53.086Z,20.23
2022-07-27T09:12:53.075Z,19.90
2022-07-27T09:13:53.068Z,20.05
2022-07-27T09:14:53.431Z,20.64
2022-07-27T09:17:45.999Z,20.82
2022-07-27T09:17:54.188Z,20.98
2022-07-27T09:18:53.012Z,21.71
2022-07-27T09:19:53.004Z,21.70
2022-07-27T09:20:53.165Z,21.68
2022-07-27T09:21:52.980Z,22.51
2022-07-27T09:22:52.974Z,22.51
2022-07-27T09:23:52.974Z,22.45
2022-07-27T09:24:52.946Z,22.88
2022-07-27T09:26:04.131Z,23.12
2022-07-27T09:26:52.927Z,24.00
2022-07-27T09:27:52.962Z,24.23
2022-07-27T09:28:53.057Z,24.26
2022-07-27T09:29:53.151Z,24.70
2022-07-27T09:30:53.249Z,25.19
2022-07-27T09:31:52.903Z,24.67
2022-07-27T09:32:53.095Z,24.08
2022-07-27T09:33:52.854Z,24.26
2022-07-27T09:34:52.842Z,24.59
2022-07-27T09:35:52.832Z,24.30
2022-07-27T09:36:52.824Z,24.67
2022-07-27T09:37:52.811Z,24.68
2022-07-27T09:38:56.247Z,24.00
2022-07-27T09:39:52.793Z,23.84
2022-07-27T09:40:52.783Z,24.44
2022-07-27T09:41:52.776Z,24.68
2022-07-27T09:43:05.613Z,24.89
2022-07-27T09:44:30.580Z,24.64
2022-07-27T09:44:54.733Z,24.94
2022-07-27T09:45:52.733Z,24.52
2022-07-27T09:46:52.764Z,24.64
2022-07-27T09:47:52.710Z,24.82
2022-07-27T09:48:52.777Z,24.16
2022-07-27T09:49:52.687Z,24.16
2022-07-27T09:51:01.932Z,23.57
2022-07-27T09:52:01.660Z,23.19
2022-07-27T09:52:52.681Z,24.11
2022-07-27T09:53:52.649Z,24.11
2022-07-27T09:54:52.637Z,23.71
2022-07-27T09:55:58.765Z,23.32
2022-07-27T09:56:53.650Z,23.03
2022-07-27T09:57:52.609Z,22.96
2022-07-27T09:58:52.593Z,22.42
2022-07-27T09:59:52.587Z,22.06
2022-07-27T10:00:52.575Z,21.98
2022-07-27T10:01:54.664Z,22.12
2022-07-27T10:02:52.559Z,22.19
2022-07-27T10:03:52.551Z,22.24
2022-07-27T10:04:52.630Z,22.27
2022-07-27T10:05:52.525Z,22.05
2022-07-27T10:07:07.256Z,22.08
2022-07-27T10:07:53.610Z,22.38
2022-07-27T10:08:52.491Z,23.34
2022-07-27T10:09:52.492Z,23.38
2022-07-27T10:10:52.488Z,23.21
2022-07-27T10:11:52.486Z,23.25
2022-07-27T10:12:55.115Z,23.44
2022-07-27T10:13:52.557Z,23.87
2022-07-27T10:14:52.578Z,24.70
2022-07-27T10:15:52.571Z,25.01
2022-07-27T10:16:52.411Z,25.27
2022-07-27T10:17:52.402Z,25.79
2022-07-27T10:18:55.636Z,26.08
2022-07-27T10:19:52.381Z,26.61
2022-07-27T10:20:52.368Z,26.57
2022-07-27T10:21:52.368Z,25.91
2022-07-27T10:22:52.350Z,24.75
2022-07-27T10:23:52.345Z,23.97
2022-07-27T10:24:53.305Z,23.54
2022-07-27T10:25:52.324Z,23.25
2022-07-27T10:26:52.336Z,22.96
2022-07-27T10:27:52.598Z,23.54
2022-07-27T10:28:52.287Z,24.82
2022-07-27T10:29:52.285Z,24.31
2022-07-27T10:30:54.715Z,23.64
2022-07-27T10:31:52.259Z,23.41
2022-07-27T10:32:52.243Z,23.21
2022-07-27T10:33:52.236Z,22.96
2022-07-27T10:34:52.226Z,22.79
2022-07-27T10:35:52.218Z,22.78
2022-07-27T10:36:52.233Z,22.72
2022-07-27T10:37:52.250Z,22.94
2022-07-27T10:38:52.212Z,23.15
2022-07-27T10:39:52.176Z,23.06
2022-07-27T10:40:52.173Z,23.01
2022-07-27T10:41:52.153Z,22.72
2022-07-27T10:42:54.696Z,22.35
2022-07-27T10:43:52.133Z,22.24
2022-07-27T10:44:52.119Z,22.23
2022-07-27T10:46:02.749Z,22.38
2022-07-27T10:46:53.243Z,22.31
2022-07-27T10:47:52.102Z,22.26
2022-07-27T10:48:52.113Z,23.07
2022-07-27T10:49:52.069Z,24.52
2022-07-27T10:50:52.063Z,25.85
2022-07-27T10:51:52.047Z,26.31
2022-07-27T10:52:52.043Z,25.81
2022-07-27T10:54:56.775Z,24.59
2022-07-27T10:55:52.011Z,24.36
2022-07-27T10:56:51.997Z,23.86
2022-07-27T10:57:51.987Z,23.53
2022-07-27T10:58:52.006Z,23.11
2022-07-27T11:00:07.863Z,22.94
2022-07-27T11:00:55.594Z,22.86
2022-07-27T11:01:52.046Z,22.99
2022-07-27T11:02:51.945Z,23.15
2022-07-27T11:03:51.968Z,23.04
2022-07-27T11:04:51.945Z,23.16
2022-07-27T11:06:00.186Z,23.75
2022-07-27T11:07:23.075Z,24.82
2022-07-27T11:08:34.928Z,25.61
2022-07-27T11:09:16.948Z,26.56
2022-07-27T11:10:03.428Z,26.83
2022-07-27T11:10:52.050Z,26.97
2022-07-27T11:11:51.837Z,27.08
2022-07-27T11:12:51.823Z,27.25
2022-07-27T11:13:51.814Z,27.38
2022-07-27T11:14:51.802Z,26.24
2022-07-27T11:15:59.585Z,25.63
2022-07-27T11:16:56.079Z,25.17
2022-07-27T11:18:00.665Z,24.82
2022-07-27T11:18:53.806Z,24.42
2022-07-27T11:19:51.755Z,24.14
2022-07-27T11:20:51.743Z,23.72
2022-07-27T11:21:51.733Z,23.23
2022-07-27T11:23:52.048Z,22.93
2022-07-27T11:24:51.732Z,22.96
2022-07-27T11:25:51.700Z,23.12
2022-07-27T11:26:51.679Z,23.35
2022-07-27T11:27:51.671Z,23.52
2022-07-27T11:28:51.660Z,23.69
2022-07-27T11:29:51.652Z,23.78
2022-07-27T11:30:51.705Z,24.05
2022-07-27T11:31:59.190Z,24.31
2022-07-27T11:32:52.650Z,24.51
2022-07-27T11:33:51.610Z,24.42
2022-07-27T11:34:51.605Z,24.61
2022-07-27T11:35:51.589Z,24.15
2022-07-27T11:36:51.574Z,23.81
2022-07-27T11:37:51.566Z,23.78
2022-07-27T11:38:51.554Z,23.81
2022-07-27T11:40:00.507Z,24.02
2022-07-27T11:40:59.941Z,23.84
2022-07-27T11:42:08.705Z,23.57
2022-07-27T11:42:52.543Z,23.49
2022-07-27T11:43:51.506Z,23.41
2022-07-27T11:44:51.502Z,22.99
2022-07-27T11:45:51.588Z,22.66
2022-07-27T11:46:51.497Z,22.81
2022-07-27T11:47:51.494Z,22.91
2022-07-27T11:49:08.296Z,23.12
2022-07-27T11:49:52.622Z,23.44
2022-07-27T11:50:51.433Z,23.69
2022-07-27T11:51:51.422Z,23.82
2022-07-27T11:52:51.410Z,24.77
2022-07-27T11:53:51.399Z,25.44
2022-07-27T11:54:51.410Z,26.06
2022-07-27T11:55:51.378Z,26.96
2022-07-27T11:56:51.375Z,26.50
2022-07-27T11:57:51.359Z,25.78
2022-07-27T11:58:51.348Z,26.00
2022-07-27T11:59:51.339Z,26.54
2022-07-27T12:00:51.325Z,26.93
2022-07-27T12:01:51.322Z,27.31
2022-07-27T12:02:51.456Z,27.72
2022-07-27T12:03:51.353Z,28.11
2022-07-27T12:04:51.444Z,28.36
2022-07-27T12:05:51.275Z,28.98
2022-07-27T12:06:51.271Z,28.28
2022-07-27T12:07:51.288Z,27.16
2022-07-27T12:08:51.283Z,26.17
2022-07-27T12:09:51.301Z,25.72
2022-07-27T12:10:51.259Z,25.36
2022-07-27T12:11:51.219Z,25.02
2022-07-27T12:12:51.211Z,24.51
2022-07-27T12:13:51.197Z,24.46
2022-07-27T12:14:51.332Z,24.36
2022-07-27T12:15:51.175Z,24.42
2022-07-27T12:16:51.234Z,24.09
2022-07-27T12:17:51.234Z,23.81
2022-07-27T12:18:51.419Z,23.86
2022-07-27T12:19:51.134Z,23.92
2022-07-27T12:20:51.121Z,24.02
2022-07-27T12:21:51.117Z,24.24
2022-07-27T12:22:51.103Z,24.19
2022-07-27T12:23:51.093Z,25.09
2022-07-27T12:24:51.290Z,25.42
2022-07-27T12:25:51.072Z,25.36
2022-07-27T12:26:51.059Z,25.41
2022-07-27T12:27:51.048Z,26.11
2022-07-27T12:28:51.049Z,26.54
2022-07-27T12:29:51.060Z,26.44
2022-07-27T12:30:51.137Z,26.50
2022-07-27T12:31:51.111Z,26.81
2022-07-27T12:32:55.409Z,27.39
2022-07-27T12:33:54.813Z,27.50
2022-07-27T12:34:50.978Z,27.62
2022-07-27T12:35:50.967Z,27.72
2022-07-27T12:36:50.964Z,27.81
2022-07-27T12:37:50.948Z,28.08
2022-07-27T12:38:50.939Z,27.95
2022-07-27T12:39:50.931Z,27.78
2022-07-27T12:40:50.920Z,27.52
2022-07-27T12:41:50.910Z,26.57
2022-07-27T12:42:50.897Z,25.67
2022-07-27T12:43:50.888Z,24.70
2022-07-27T12:44:50.877Z,24.26
2022-07-27T12:45:50.979Z,24.31
2022-07-27T12:46:50.857Z,24.34
2022-07-27T12:47:50.854Z,24.77
2022-07-27T12:48:50.910Z,26.34
2022-07-27T12:49:50.828Z,27.46
2022-07-27T12:50:50.818Z,28.21
2022-07-27T12:51:50.817Z,28.61
2022-07-27T12:52:50.795Z,27.96
2022-07-27T12:53:50.804Z,27.90
2022-07-27T12:54:50.803Z,27.63
2022-07-27T12:55:50.797Z,26.97